Walnut, CA Past Weather

Last 30 Days

High: 65ºf @12:55 AM    Low: 61ºf @3:55 AM     Approx. Precipitation / Rain Total: in.
Time (PDT)Temp. (ºf)Humidity (%)Dew Point (ºf)Barometer (inHG)Wind Speed (mph)Wind DirectionWind Gust (mph)1hr. Precip / Rain Total (in.)Snow Depth
4:55 AM627453.61-1.74nne4.34--
3:55 AM617452.65-1.74n3.48--
2:55 AM646752.82-0.87nne5.21--
1:55 AM657054.97-1.74nne4.34--
12:55 AM657356.13-1.74nne3.48--
High: 88ºf @3:55 PM    Low: 64ºf @9:55 PM     Approx. Precipitation / Rain Total: in.
Time (PDT)Temp. (ºf)Humidity (%)Dew Point (ºf)Barometer (inHG)Wind Speed (mph)Wind DirectionWind Gust (mph)1hr. Precip / Rain Total (in.)Snow Depth
11:55 PM657356.13-2.61n4.34--
10:55 PM657255.75-2.61n5.21--
9:55 PM647154.4-2.61nnw4.34--
8:55 PM676655.26-2.61nnw4.34--
7:55 PM725755.92-0.87ssw8.69--
6:55 PM755256.16-6.08sw14.77--
5:55 PM815060.58-8.69wsw15.64--
4:55 PM854460.61-8.69sw14.77--
3:55 PM883959.9-6.95wsw15.64--
2:55 PM883959.9-6.95sw13.9--
1:55 PM883959.9-6.95sw13.03--
12:55 PM864360.86-6.95sw11.3--
11:55 AM864360.86-5.21ssw8.69--
10:55 AM874059.72-2.61ssw6.08--
9:55 AM853856.51-1.74ssw4.34--
8:55 AM814255.72-0.87sse2.61--
7:55 AM734550.39-0.87ne4.34--
6:55 AM675148.27-2.61n4.34--
5:55 AM665348.37-1.74nne4.34--
4:55 AM675148.27-0.87ne2.61--
3:55 AM684847.57-1.74nne3.48--
2:55 AM695451.65-1.74nne3.48--
1:55 AM695351.15-1.74nne4.34--
12:55 AM705553.08-1.74nne4.34--
High: 96ºf @2:55 PM    Low: 70ºf @11:55 PM     Approx. Precipitation / Rain Total: in.
Time (PDT)Temp. (ºf)Humidity (%)Dew Point (ºf)Barometer (inHG)Wind Speed (mph)Wind DirectionWind Gust (mph)1hr. Precip / Rain Total (in.)Snow Depth
11:55 PM705754.05-1.74n3.48--
10:55 PM715554.01-2.61n4.34--
9:55 PM706658.11-1.74n4.34--
8:55 PM746561.47-3.48w7.82--
7:55 PM785862-2.61sw9.56--
6:55 PM814859.43-4.34sw12.17--
5:55 PM883758.42-6.95wsw13.03--
4:55 PM933460.43-7.82wsw14.77--
3:55 PM952553.61-6.95sw13.9--
2:55 PM962352.17-6.95sw15.64--
1:55 PM962250.96-6.95sw12.17--
12:55 PM942552.77-6.08ssw10.43--
11:55 AM952148.89-3.48ssw6.95--
10:55 AM932450.82-1.74ssw5.21--
9:55 AM893053.5-0.87sse3.48--
8:55 AM872950.86---1.74--
7:55 AM734349.17---3.48--
6:55 AM704145.21-2.61nne5.21--
5:55 AM704245.84-0.87nne4.34--
4:55 AM723945.67-1.74ne3.48--
3:55 AM713844.1-3.48n5.21--
2:55 AM723945.67-2.61n5.21--
1:55 AM743746.06-2.61nne5.21--
12:55 AM744048.13-1.74n4.34--
High: 98ºf @3:55 PM    Low: 69ºf @4:55 AM     Approx. Precipitation / Rain Total: in.
Time (PDT)Temp. (ºf)Humidity (%)Dew Point (ºf)Barometer (inHG)Wind Speed (mph)Wind DirectionWind Gust (mph)1hr. Precip / Rain Total (in.)Snow Depth
11:55 PM753847.65-0.87nne3.48--
10:55 PM774252.13-1.74ne4.34--
9:55 PM755055.08-0.87n5.21--
8:55 PM764653.71-1.74ene5.21--
7:55 PM804053.48-2.61sw6.08--
6:55 PM843956.35-1.74s9.56--
5:55 PM903356.99-7.82wsw13.03--
4:55 PM952856.73-9.56wsw13.9--
3:55 PM982151.35-6.08wsw13.9--
2:55 PM981948.66-6.08sw12.17--
1:55 PM971947.85-5.21sw11.3--
12:55 PM971846.41-3.48ssw8.69--
11:55 AM971541.64-1.74se6.08--
10:55 AM951641.73-1.74s5.21--
9:55 AM922146.43-0.87e3.48--
8:55 AM892851.62---2.61--
7:55 AM743544.6-2.61ne4.34--
6:55 AM703440.33-1.74nne4.34--
5:55 AM693439.45-1.74ene4.34--
4:55 AM693640.93-2.61nne4.34--
3:55 AM703843.21-0.87ne4.34--
2:55 AM703742.52-2.61nne4.34--
1:55 AM713743.4-1.74nne4.34--
12:55 AM714447.98-1.74nne3.48--
High: 94ºf @2:55 PM    Low: 69ºf @6:55 AM     Approx. Precipitation / Rain Total: in.
Time (PDT)Temp. (ºf)Humidity (%)Dew Point (ºf)Barometer (inHG)Wind Speed (mph)Wind DirectionWind Gust (mph)1hr. Precip / Rain Total (in.)Snow Depth
11:55 PM724348.27-1.74n4.34--
10:55 PM734550.39-1.74nne5.21--
9:55 PM744651.89-0.87nne3.48--
8:55 PM764452.49-0.87nne3.48--
7:55 PM793851.2-0.87s5.21--
6:55 PM833451.71-1.74ssw10.43--
5:55 PM882951.72-6.95wsw13.9--
4:55 PM922753.18-6.95sw16.51--
3:55 PM942855.88-6.95sw14.77--
2:55 PM942552.77-6.95wsw14.77--
1:55 PM942350.51-8.69wsw14.77--
12:55 PM932349.68-6.08sw11.3--
11:55 AM912550.25-4.34ssw8.69--
10:55 AM892649.62-3.48ssw5.21--
9:55 AM882749.79-0.87sse3.48--
8:55 AM823450.83-0.87s2.61--
7:55 AM735354.84-0.87ne3.48--
6:55 AM695451.65-1.74nne3.48--
5:55 AM695351.15-1.74nne3.48--
4:55 AM705553.08-1.74ne4.34--
3:55 AM705352.07-1.74nne5.21--
2:55 AM705352.07-1.74n5.21--
1:55 AM715252.48-1.74nne4.34--
12:55 AM725253.4-0.87nne4.34--
High: 93ºf @3:55 PM    Low: 67ºf @4:55 AM     Approx. Precipitation / Rain Total: in.
Time (PDT)Temp. (ºf)Humidity (%)Dew Point (ºf)Barometer (inHG)Wind Speed (mph)Wind DirectionWind Gust (mph)1hr. Precip / Rain Total (in.)Snow Depth
11:55 PM725052.33-0.87nne2.61--
10:55 PM734852.13-0.87n3.48--
9:55 PM744450.69-0.87n4.34--
8:55 PM754049.02-1.74nnw3.48--
7:55 PM783245.73-0.87wsw6.95--
6:55 PM812945.72-5.21sw10.43--
5:55 PM872647.93-6.08sw13.03--
4:55 PM902650.47-7.82sw13.03--
3:55 PM932754.03-6.08sw13.03--
2:55 PM922652.15-6.95sw14.77--
1:55 PM912752.33-7.82sw13.03--
12:55 PM902549.41-5.21ssw10.43--
11:55 AM872546.89-5.21ssw9.56--
10:55 AM862343.86-3.48s7.82--
9:55 AM832745.54-2.61ssw5.21--
8:55 AM813349.16---1.74--
7:55 AM705854.53---2.61--
6:55 AM675952.19-0.87nne3.48--
5:55 AM675952.19-0.87nne2.61--
4:55 AM676052.65-1.74nne3.48--
3:55 AM685752.19-0.87n2.61--
2:55 AM695552.15-0.87nne3.48--
1:55 AM695250.63-2.61nne4.34--
12:55 AM695250.63-1.74nne2.61--
High: 92ºf @3:55 PM    Low: 67ºf @5:55 AM     Approx. Precipitation / Rain Total: in.
Time (PDT)Temp. (ºf)Humidity (%)Dew Point (ºf)Barometer (inHG)Wind Speed (mph)Wind DirectionWind Gust (mph)1hr. Precip / Rain Total (in.)Snow Depth
11:55 PM714749.74-0.87nne3.48--
10:55 PM714649.16-2.61n3.48--
9:55 PM714146.1-0.87nne4.34--
8:55 PM723744.29---4.34--
7:55 PM753041.45-3.48w6.95--
6:55 PM802642.01-3.48wsw13.03--
5:55 PM862141.49-6.95wsw14.77--
4:55 PM892447.48-7.82wsw13.9--
3:55 PM922955.14-8.69wsw13.03--
2:55 PM922955.14-6.95sw13.03--
1:55 PM913156.12-6.08ssw11.3--
12:55 PM893255.27-5.21sw9.56--
11:55 AM893154.4-4.34sw7.82--
10:55 AM863353.51-3.48ssw6.95--
9:55 AM843452.58-1.74se4.34--
8:55 AM814054.38-0.87s3.48--
7:55 AM725755.92-0.87ne4.34--
6:55 AM676153.1-1.74nne4.34--
5:55 AM675952.19-2.61n4.34--
4:55 AM675952.19-1.74nne3.48--
3:55 AM686154.04-0.87nne3.48--
2:55 AM696054.53-1.74nne4.34--
1:55 AM705955-0.87nne4.34--
12:55 AM706055.46-2.61-3.48--
High: 92ºf @3:55 PM    Low: 62ºf @4:55 AM     Approx. Precipitation / Rain Total: in.
Time (PDT)Temp. (ºf)Humidity (%)Dew Point (ºf)Barometer (inHG)Wind Speed (mph)Wind DirectionWind Gust (mph)1hr. Precip / Rain Total (in.)Snow Depth
11:55 PM715855.47-0.87ne3.48--
10:55 PM715453.5-1.74nne5.21--
9:55 PM705352.07-1.74n3.48--
8:55 PM743846.77-2.61wsw5.21--
7:55 PM773849.43-2.61wsw8.69--
6:55 PM813852.97-5.21wsw11.3--
5:55 PM873455.2-6.95wsw13.9--
4:55 PM902852.47-7.82wsw13.03--
3:55 PM922551.09-7.82sw13.03--
2:55 PM922753.18-6.95sw11.3--
1:55 PM912651.31-5.21sw10.43--
12:55 PM912752.33-2.61s8.69--
11:55 AM892447.48-3.48ssw8.69--
10:55 AM862647.09-3.48ssw6.08--
9:55 AM842746.39-0.87s4.34--
8:55 AM803549.86-0.87s4.34--
7:55 AM694647.35-1.74ese3.48--
6:55 AM654643.71-2.61nne4.34--
5:55 AM644642.8-1.74nne4.34--
4:55 AM624842.08-2.61nne4.34--
3:55 AM634641.89-1.74nne3.48--
2:55 AM644240.44-2.61nne6.08--
1:55 AM634843-1.74nne5.21--
12:55 AM644240.44-2.61n5.21--
High: 89ºf @3:55 PM    Low: 57ºf @4:55 AM     Approx. Precipitation / Rain Total: in.
Time (PDT)Temp. (ºf)Humidity (%)Dew Point (ºf)Barometer (inHG)Wind Speed (mph)Wind DirectionWind Gust (mph)1hr. Precip / Rain Total (in.)Snow Depth
11:55 PM644240.44-1.74nne3.48--
10:55 PM654945.37-1.74nne4.34--
9:55 PM645044.98-2.61n4.34--
8:55 PM655146.42-3.48n5.21--
7:55 PM734349.17-2.61sw7.82--
6:55 PM773849.43-4.34wsw10.43--
5:55 PM842746.39-6.08wsw10.43--
4:55 PM881839.15-5.21sw10.43--
3:55 PM891636.95-4.34ssw8.69--
2:55 PM891535.32-3.48ssw8.69--
1:55 PM881126.89-3.48se8.69--
12:55 PM851633.76-3.48s8.69--
11:55 AM832442.46-2.61s6.08--
10:55 AM793145.76-2.61ssw5.21--
9:55 AM763747.83-1.74s4.34--
8:55 AM724147-1.74sse3.48--
7:55 AM615243.25---2.61--
6:55 AM575540.99-1.74nne5.21--
5:55 AM575641.46-2.61nne4.34--
4:55 AM575842.37-1.74ne4.34--
3:55 AM575741.92-1.74n4.34--
2:55 AM585943.75-1.74nne3.48--
1:55 AM585843.31-0.87nne4.34--
12:55 AM596346.42-1.74ne4.34--
High: 81ºf @3:55 PM    Low: 55ºf @4:55 AM     Approx. Precipitation / Rain Total: in.
Time (PDT)Temp. (ºf)Humidity (%)Dew Point (ºf)Barometer (inHG)Wind Speed (mph)Wind DirectionWind Gust (mph)1hr. Precip / Rain Total (in.)Snow Depth
11:55 PM596848.45-1.74n4.34--
10:55 PM596647.66-0.87nne4.34--
9:55 PM606146.51---5.21--
8:55 PM646250.71-0.87sw5.21--
7:55 PM675449.8-0.87w6.95--
6:55 PM714749.74-3.48wsw11.3--
5:55 PM763747.83-6.95wsw12.17--
4:55 PM802742.99-6.08wsw11.3--
3:55 PM812339.69-5.21sw13.9--
2:55 PM792641.17-6.08ssw11.3--
1:55 PM792843.09-5.21ssw10.43--
12:55 PM773950.13-4.34ssw10.43--
11:55 AM744953.61-3.48ssw9.56--
10:55 AM725152.87-4.34sw8.69--
9:55 AM705955-2.61ssw6.08--
8:55 AM676856.08-1.74ssw3.48--
7:55 AM607451.69---3.48--
6:55 AM568049.92-1.74ne5.21--
5:55 AM567949.58-0.87nne5.21--
4:55 AM558450.25-2.61n4.34--
3:55 AM579154.4-1.74nne3.48--
2:55 AM578953.79-1.74nne3.48--
1:55 AM589155.39-0.87n5.21--
12:55 AM588954.77-1.74nne4.34--
High: 83ºf @3:55 PM    Low: 56ºf @4:55 AM     Approx. Precipitation / Rain Total: in.
Time (PDT)Temp. (ºf)Humidity (%)Dew Point (ºf)Barometer (inHG)Wind Speed (mph)Wind DirectionWind Gust (mph)1hr. Precip / Rain Total (in.)Snow Depth
11:55 PM598654.82-2.61nnw4.34--
10:55 PM618656.78-1.74nnw5.21--
9:55 PM648358.73---6.08--
8:55 PM657857.97-3.48wsw9.56--
7:55 PM687359.01-4.34wsw12.17--
6:55 PM716458.2-6.95wsw13.03--
5:55 PM775056.92-7.82wsw13.9--
4:55 PM814356.37-6.08sw12.17--
3:55 PM832846.51-6.08wsw13.03--
2:55 PM822744.69-3.48ssw10.43--
1:55 PM813349.16-6.08ssw11.3--
12:55 PM802944.86-3.48ssw7.82--
11:55 AM763949.24-3.48s7.82--
10:55 AM735455.36-1.74s5.21--
9:55 AM706155.92-0.87s4.34--
8:55 AM676554.84-0.87se3.48--
7:55 AM607552.05---2.61--
6:55 AM568250.58-1.74nne3.48--
5:55 AM568049.92-0.87nne5.21--
4:55 AM569053.11-3.48n5.21--
3:55 AM599156.37-1.74nne4.34--
2:55 AM568752.18-2.61n4.34--
1:55 AM568451.23-2.61n3.48--
12:55 AM588653.83---4.34--
High: 81ºf @3:55 PM    Low: 55ºf @6:55 AM     Approx. Precipitation / Rain Total: in.
Time (PDT)Temp. (ºf)Humidity (%)Dew Point (ºf)Barometer (inHG)Wind Speed (mph)Wind DirectionWind Gust (mph)1hr. Precip / Rain Total (in.)Snow Depth
11:55 PM588352.86-0.87-3.48--
10:55 PM609057.06-1.74nw5.21--
9:55 PM627553.98-1.74wnw6.95--
8:55 PM656854.17-3.48sw8.69--
7:55 PM675952.19-4.34wsw10.43--
6:55 PM705653.57-6.95wsw15.64--
5:55 PM764653.71-7.82sw13.03--
4:55 PM793851.2-7.82wsw12.17--
3:55 PM813449.96-6.08sw12.17--
2:55 PM803449.09-4.34ssw11.3--
1:55 PM793851.2-6.08ssw10.43--
12:55 PM783548.11-2.61ssw7.82--
11:55 AM745054.16-1.74se7.82--
10:55 AM716056.4-1.74sw6.08--
9:55 AM686857.03-2.61ssw5.21--
8:55 AM647857-0.87se3.48--
7:55 AM598654.82-0.87ene4.34--
6:55 AM559453.3-1.74nne3.48--
2:55 AM568952.8-0.87n3.48--
1:55 AM568752.18-1.74n3.48--
12:55 AM578953.79-1.74n3.48--
High: 78ºf @3:55 PM    Low: 57ºf @1:55 AM     Approx. Precipitation / Rain Total: in.
Time (PDT)Temp. (ºf)Humidity (%)Dew Point (ºf)Barometer (inHG)Wind Speed (mph)Wind DirectionWind Gust (mph)1hr. Precip / Rain Total (in.)Snow Depth
11:55 PM588754.15-0.87nne4.34--
10:55 PM588754.15-2.61n3.48--
9:55 PM618456.13-1.74nw6.95--
8:55 PM647756.64-2.61wsw7.82--
7:55 PM667156.32-5.21wsw11.3--
6:55 PM686455.36-6.08wsw13.03--
5:55 PM735354.84-7.82wsw13.9--
4:55 PM765056-6.95sw13.9--
3:55 PM784655.52-6.95sw13.03--
2:55 PM784353.67-6.08sw13.03--
1:55 PM784152.37-3.48wsw12.17--
12:55 PM754451.59-2.61se8.69--
11:55 AM725253.4-2.61s10.43--
10:55 AM715855.47-2.61ssw8.69--
9:55 AM686354.92-3.48s7.82--
8:55 AM647756.64-1.74s3.48--
7:55 AM618857.42-1.74wnw3.48--
6:55 AM609658.85-0.87wnw4.34--
5:55 AM609357.97-2.61w4.34--
4:55 AM609357.97-1.74nw3.48--
3:55 AM609558.56-1.74w3.48--
2:55 AM579555.58-0.87nnw5.21--
1:55 AM579455.29-3.48n4.34--
12:55 AM589456.28-2.61n4.34--
High: 77ºf @4:55 PM    Low: 58ºf @5:55 AM     Approx. Precipitation / Rain Total: in.
Time (PDT)Temp. (ºf)Humidity (%)Dew Point (ºf)Barometer (inHG)Wind Speed (mph)Wind DirectionWind Gust (mph)1hr. Precip / Rain Total (in.)Snow Depth
11:55 PM599356.98-2.61n5.21--
10:55 PM618857.42-1.74wnw5.21--
9:55 PM638257.41-3.48wsw6.08--
8:55 PM647656.28-2.61wsw8.69--
7:55 PM667055.93-4.34wsw10.43--
6:55 PM696556.73-6.95wsw13.9--
5:55 PM764955.44-6.08wsw11.3--
4:55 PM774453.4-6.95wsw13.03--
3:55 PM774554.01-5.21ssw11.3--
2:55 PM774654.61-5.21ssw12.17--
1:55 PM755055.08-4.34sw9.56--
12:55 PM725554.94-4.34ssw8.69--
11:55 AM716156.86-2.61s6.95--
10:55 AM667557.84-2.61s6.08--
9:55 AM667658.21-1.74ssw5.21--
8:55 AM638959.7-2.61ssw5.21--
7:55 AM619960.72-2.61w5.21--
6:55 AM589757.15---2.61--
5:55 AM589656.86-0.87nne2.61--
4:55 AM599457.27-1.74n2.61--
3:55 AM599056.07-1.74n3.48--
2:55 AM598554.49-0.87ne4.34--
1:55 AM608455.15-1.74n3.48--
12:55 AM608655.8-1.74n6.08--
High: 82ºf @3:55 PM    Low: 58ºf @5:55 AM     Approx. Precipitation / Rain Total: in.
Time (PDT)Temp. (ºf)Humidity (%)Dew Point (ºf)Barometer (inHG)Wind Speed (mph)Wind DirectionWind Gust (mph)1hr. Precip / Rain Total (in.)Snow Depth
11:55 PM608956.75-3.48n5.21--
10:55 PM618857.42-1.74nw4.34--
9:55 PM638558.41-0.87n4.34--
8:55 PM667959.29-1.74nw6.95--
7:55 PM687258.63-2.61wsw10.43--
6:55 PM726459.14-6.08wsw13.03--
5:55 PM775559.58-6.95wsw15.64--
4:55 PM794857.61-7.82sw13.9--
3:55 PM823954.57-6.08wsw14.77--
2:55 PM813852.97-6.95sw13.03--
1:55 PM804154.16-6.08sw14.77--
12:55 PM784957.27-6.08wsw11.3--
11:55 AM755758.72-4.34s8.69--
10:55 AM726459.14-4.34s9.56--
9:55 AM697159.19-2.61ssw7.82--
8:55 AM687760.51-1.74ssw4.34--
7:55 AM628858.4---1.74--
6:55 AM589456.28---2.61--
5:55 AM589456.28---2.61--
4:55 AM599056.07-0.87nne3.48--
3:55 AM599356.98-0.87nne4.34--
2:55 AM599256.68-2.61n4.34--
1:55 AM599156.37-2.61nnw3.48--
12:55 AM599356.98-2.61nnw3.48--
High: 80ºf @3:55 PM    Low: 59ºf @3:55 AM     Approx. Precipitation / Rain Total: in.
Time (PDT)Temp. (ºf)Humidity (%)Dew Point (ºf)Barometer (inHG)Wind Speed (mph)Wind DirectionWind Gust (mph)1hr. Precip / Rain Total (in.)Snow Depth
11:55 PM609357.97-2.61nnw4.34--
10:55 PM619258.66-0.87nnw2.61--
9:55 PM648659.72-2.61nw5.21--
8:55 PM667858.94-3.48wsw8.69--
7:55 PM697058.8-5.21wsw11.3--
6:55 PM726157.8-6.08wsw12.17--
5:55 PM765357.61-6.95sw13.9--
4:55 PM794757.02-6.08sw13.03--
3:55 PM803650.62-6.95sw15.64--
2:55 PM804154.16-6.08sw13.03--
1:55 PM784253.03-6.08ssw12.17--
12:55 PM764854.87-5.21ssw10.43--
11:55 AM755356.69-3.48sw9.56--
10:55 AM725856.4-2.61sw8.69--
9:55 AM706356.81-1.74ssw5.21--
8:55 AM657255.75-2.61sw4.34--
7:55 AM647656.28---4.34--
6:55 AM637956.38-1.74n3.48--
5:55 AM638357.75-2.61nnw4.34--
4:55 AM618355.8-1.74n4.34--
3:55 AM598955.76-2.61n4.34--
2:55 AM608856.43-0.87nne5.21--
1:55 AM628958.72-2.61n4.34--
12:55 AM658761.03-0.87nnw6.08--
High: 81ºf @3:55 PM    Low: 63ºf @3:55 AM     Approx. Precipitation / Rain Total: in.
Time (PDT)Temp. (ºf)Humidity (%)Dew Point (ºf)Barometer (inHG)Wind Speed (mph)Wind DirectionWind Gust (mph)1hr. Precip / Rain Total (in.)Snow Depth
11:55 PM658761.03-2.61w7.82--
10:55 PM659162.3-4.34sw7.82--
9:55 PM659162.3-1.74wnw6.08--
8:55 PM678361.66-3.48wsw9.56--
7:55 PM696355.87-5.21sw11.3--
6:55 PM725554.94-6.08wsw13.9--
5:55 PM775258.01-7.82sw14.77--
4:55 PM804757.93-7.82wsw13.9--
3:55 PM814658.24-7.82sw15.64--
2:55 PM814457.01-6.08sw13.9--
1:55 PM805059.66-6.95sw13.9--
12:55 PM785459.99-4.34ssw10.43--
11:55 AM766061.09-3.48ssw9.56--
10:55 AM746661.9-3.48ssw7.82--
9:55 AM717361.9-5.21ssw7.82--
8:55 AM698363.61-2.61ssw6.08--
7:55 AM659663.83---3.48--
6:55 AM649963.71-0.87sw4.34--
5:55 AM649662.83-0.87ssw3.48--
4:55 AM639561.54---1.74--
3:55 AM639461.24---3.48--
2:55 AM649061-1.74n3.48--
1:55 AM648960.69-0.87n2.61--
12:55 AM648659.72---3.48--
High: 81ºf @3:55 PM    Low: 64ºf @11:55 PM     Approx. Precipitation / Rain Total: in.
Time (PDT)Temp. (ºf)Humidity (%)Dew Point (ºf)Barometer (inHG)Wind Speed (mph)Wind DirectionWind Gust (mph)1hr. Precip / Rain Total (in.)Snow Depth
11:55 PM648358.73-1.74n3.48--
10:55 PM657757.61-2.61nnw4.34--
9:55 PM686455.36---5.21--
8:55 PM696355.87-3.48w8.69--
7:55 PM716357.76-5.21wsw9.56--
6:55 PM745858.27-5.21wsw13.03--
5:55 PM775660.08-6.95sw13.03--
4:55 PM785962.49-6.08sw13.9--
3:55 PM815663.8-5.21wsw12.17--
2:55 PM815563.28-6.95sw12.17--
1:55 PM795963.43-6.08wsw13.03--
12:55 PM795661.94-4.34sw10.43--
11:55 AM795661.94-6.08sw11.3--
10:55 AM785661.01-3.48sw8.69--
9:55 AM766663.8-1.74ese6.08--
8:55 AM737464.21-0.87sw2.61--
7:55 AM689365.9-0.87sw3.48--
6:55 AM669865.42---2.61--
5:55 AM669965.71-2.61nnw3.48--
4:55 AM659964.71-2.61nnw3.48--
3:55 AM669965.71-0.87ne2.61--
2:55 AM669965.71---3.48--
1:55 AM669965.71---3.48--
12:55 AM679766.12-1.74nnw3.48--
High: 85ºf @3:55 PM    Low: 66ºf @1:55 AM     Approx. Precipitation / Rain Total: in.
Time (PDT)Temp. (ºf)Humidity (%)Dew Point (ºf)Barometer (inHG)Wind Speed (mph)Wind DirectionWind Gust (mph)1hr. Precip / Rain Total (in.)Snow Depth
11:55 PM679766.12---2.61--
10:55 PM689466.2-1.74nnw2.61--
9:55 PM708364.59-1.74nw6.08--
8:55 PM727664.01-3.48sw8.69--
7:55 PM737363.82-4.34sw9.56--
6:55 PM766764.23-6.08wsw13.03--
5:55 PM805863.87-6.95wsw12.17--
4:55 PM835364.08-6.95sw14.77--
3:55 PM855064.24-6.95wsw17.38--
2:55 PM845163.89-5.21ssw12.17--
1:55 PM845566.07-4.34sw10.43--
12:55 PM815965.3-5.21sw10.43--
11:55 AM796465.76-1.74ssw6.08--
10:55 AM796566.21-2.61se6.08--
9:55 AM767467.1-1.74ssw4.34--
8:55 AM747766.32-0.87e2.61--
7:55 AM709468.19-0.87ne2.61--
6:55 AM679966.71-0.87nne2.61--
5:55 AM6710067-0.87n2.61--
4:55 AM679966.71-0.87nne4.34--
3:55 AM6710067---3.48--
2:55 AM6710067-1.74n4.34--
1:55 AM6610066---3.48--
12:55 AM679866.41-2.61n5.21--
High: 89ºf @2:55 PM    Low: 68ºf @10:55 PM     Approx. Precipitation / Rain Total: in.
Time (PDT)Temp. (ºf)Humidity (%)Dew Point (ºf)Barometer (inHG)Wind Speed (mph)Wind DirectionWind Gust (mph)1hr. Precip / Rain Total (in.)Snow Depth
11:55 PM6810068-2.61n4.34--
10:55 PM6810068-2.61nnw4.34--
9:55 PM709969.7-1.74ne6.95--
8:55 PM698965.62-4.34nnw11.3--
7:55 PM7010070-6.08wnw9.56--
6:55 PM757365.74-4.34ese15.64--
5:55 PM825765.24-8.69sw14.77--
4:55 PM855164.81-6.95sw13.9--
3:55 PM884362.66-7.82sw13.9--
2:55 PM894363.56-6.95sw14.77--
1:55 PM884362.66-5.21sw11.3--
12:55 PM865065.16-4.34ssw10.43--
11:55 AM845465.54-2.61s6.95--
10:55 AM806466.7-0.87s6.08--
9:55 AM777066.45-2.61s6.95--
8:55 AM748067.43-0.87wsw3.48--
7:55 AM719368.87-1.74nw2.61--
6:55 AM709869.41-2.61nw3.48--
5:55 AM709869.41-1.74w3.48--
4:55 AM709869.41---2.61--
3:55 AM7010070-0.87nw2.61--
2:55 AM7010070-0.87wnw5.21--
1:55 AM7010070-2.61wsw4.34--
12:55 AM7010070-1.74sw6.08--
High: 79ºf @3:55 PM    Low: 69ºf @4:55 AM     Approx. Precipitation / Rain Total: in.
Time (PDT)Temp. (ºf)Humidity (%)Dew Point (ºf)Barometer (inHG)Wind Speed (mph)Wind DirectionWind Gust (mph)1hr. Precip / Rain Total (in.)Snow Depth
11:55 PM7010070-1.74sw4.34--
10:55 PM7010070-1.74sw4.34--
9:55 PM709969.7-1.74wsw6.08--
8:55 PM719870.4-3.48wsw6.08--
7:55 PM729470.17-3.48wsw7.82--
6:55 PM748167.79-5.21wsw10.43--
5:55 PM757466.13-4.34wsw10.43--
4:55 PM776966.03-6.08wsw9.56--
3:55 PM796465.76-6.08sw10.43--
2:55 PM787167.82-5.21sw8.69--
1:55 PM787669.8-3.48sw8.69--
12:55 PM758770.86-4.34sw8.69--
11:55 AM778471.78-1.74ssw6.08--
10:55 AM786565.26-0.87ese6.08--
9:55 AM786766.13-1.74e5.21--
8:55 AM767667.87-0.87nnw2.61--
7:55 AM748368.5-1.74ne5.21--
6:55 AM7010070-1.74ene5.21--
5:55 AM6910069-0.87ene3.48--
4:55 AM6910069-1.74ssw4.34--
3:55 AM7010070-0.87n4.34--
2:55 AM7010070---2.61--
1:55 AM7110071-0.87ssw6.95--
12:55 AM7110071-2.61ne6.95--
High: 92ºf @12:55 PM    Low: 70ºf @11:55 PM     Approx. Precipitation / Rain Total: in.
Time (PDT)Temp. (ºf)Humidity (%)Dew Point (ºf)Barometer (inHG)Wind Speed (mph)Wind DirectionWind Gust (mph)1hr. Precip / Rain Total (in.)Snow Depth
11:55 PM7010070-1.74w6.95--
10:55 PM7110071-0.87wnw4.34--
9:55 PM7110071---4.34--
8:55 PM719970.7-3.48nw6.08--
7:55 PM739872.4-0.87ne6.08--
6:55 PM767667.87-1.74ne12.17--
5:55 PM843956.35-1.74s18.25--
4:55 PM853655.02-5.21n13.9--
3:55 PM853755.78-5.21ene19.12--
2:55 PM873757.54-5.21ene19.12--
1:55 PM913156.12-6.95ese20.86--
12:55 PM923156.98-6.95ene14.77--
11:55 AM913660.29-3.48ese9.56--
10:55 AM874261.09-4.34ne10.43--
9:55 AM845063.33-3.48ene6.95--
8:55 AM825061.5-1.74se4.34--
7:55 AM805562.36-2.61se5.21--
6:55 AM775157.47-2.61n4.34--
5:55 AM794555.82-1.74ne3.48--
4:55 AM794354.57-0.87ne5.21--
3:55 AM823954.57---4.34--
2:55 AM843452.58---6.08--
1:55 AM872950.86-2.61ne6.08--
12:55 AM863252.67-1.74nne5.21--
High: 100ºf @4:55 PM    Low: 78ºf @6:55 AM     Approx. Precipitation / Rain Total: in.
Time (PDT)Temp. (ºf)Humidity (%)Dew Point (ºf)Barometer (inHG)Wind Speed (mph)Wind DirectionWind Gust (mph)1hr. Precip / Rain Total (in.)Snow Depth
11:55 PM873656.78-3.48ne6.08--
10:55 PM844157.73---4.34--
9:55 PM844157.73-2.61nnw3.48--
8:55 PM863958.12-0.87ne6.95--
7:55 PM873757.54-5.21wsw10.43--
6:55 PM933056.93-4.34sw13.03--
5:55 PM972757.41-8.69w15.64--
4:55 PM1002456.66-6.08wsw12.17--
3:55 PM982758.26-5.21sw9.56--
2:55 PM953058.65-6.08sw12.17--
1:55 PM933460.43-5.21ssw10.43--
12:55 PM943360.46-4.34sw10.43--
11:55 AM883859.17-0.87nne7.82--
10:55 AM854762.48-4.34ne9.56--
9:55 AM806265.79-4.34ssw13.9--
8:55 AM796465.76-4.34e12.17--
7:55 AM814356.37-2.61nne3.48--
6:55 AM784253.03-2.61nne5.21--
5:55 AM794052.59-1.74ene4.34--
4:55 AM793951.9-1.74n4.34--
3:55 AM794253.92-2.61n5.21--
2:55 AM794153.26-2.61n6.08--
1:55 AM794253.92-1.74ne4.34--
12:55 AM813752.25-2.61ene5.21--
High: 102ºf @2:55 PM    Low: 75ºf @6:55 AM     Approx. Precipitation / Rain Total: in.
Time (PDT)Temp. (ºf)Humidity (%)Dew Point (ºf)Barometer (inHG)Wind Speed (mph)Wind DirectionWind Gust (mph)1hr. Precip / Rain Total (in.)Snow Depth
11:55 PM813752.25-2.61nne4.34--
10:55 PM814155.05-1.74n4.34--
9:55 PM824256.61-2.61n5.21--
8:55 PM864058.83-1.74ssw5.21--
7:55 PM893658.54-0.87s7.82--
6:55 PM933056.93-6.08wsw11.3--
5:55 PM982556.12-6.08wsw13.9--
4:55 PM1002456.66-7.82sw15.64--
3:55 PM1012457.49-7.82wsw14.77--
2:55 PM1022559.47-6.95sw13.9--
1:55 PM1012659.73-5.21ssw10.43--
12:55 PM1012558.63-2.61se8.69--
11:55 AM992658.05-3.48sse7.82--
10:55 AM982859.28-2.61se7.82--
9:55 AM933762.83-0.87sse6.08--
8:55 AM894262.89-1.74ese6.08--
7:55 AM824357.27-1.74ne3.48--
6:55 AM755055.08-0.87ne3.48--
5:55 AM764754.29-1.74ne3.48--
4:55 AM774755.2-2.61ne4.34--
3:55 AM784756.11-1.74nne4.34--
2:55 AM794656.43-1.74ne5.21--
1:55 AM794153.26-2.61n5.21--
12:55 AM804154.16-0.87nne4.34--
High: 101ºf @2:55 PM    Low: 76ºf @6:55 AM     Approx. Precipitation / Rain Total: in.
Time (PDT)Temp. (ºf)Humidity (%)Dew Point (ºf)Barometer (inHG)Wind Speed (mph)Wind DirectionWind Gust (mph)1hr. Precip / Rain Total (in.)Snow Depth
11:55 PM804355.47-1.74nne4.34--
10:55 PM804556.73-0.87nne3.48--
9:55 PM814658.24-1.74n4.34--
8:55 PM834760.66-1.74nnw6.95--
7:55 PM874261.09-4.34wsw12.17--
6:55 PM923560.38-6.95wsw13.9--
5:55 PM963059.5-7.82wsw16.51--
4:55 PM992556.96-9.56wsw16.51--
3:55 PM1012457.49-8.69wsw15.64--
2:55 PM1012861.82-6.95sw13.9--
1:55 PM1003062.93-7.82sw13.03--
12:55 PM993163.01-6.08sw12.17--
11:55 AM983162.15-5.21ssw8.69--
10:55 AM973363.06-2.61ssw6.08--
9:55 AM933561.25-1.74s5.21--
8:55 AM923358.72-0.87s3.48--
7:55 AM814255.72-0.87n4.34--
6:55 AM764452.49-1.74nne6.08--
Past Weather Disclaimer Note regarding "Approx. Precipitation / Rain Total"

Currently

Fair 72°F
29.94in
Barometer
65%
Humidity
Southwest 3.5mph
Wind
Fair

Past Weather Nearby

More Local Information

Bookmark and Share

Go Ad Free - Become a Member